createdAt,value
2022-11-07T00:06:49.297Z,9.20
2022-11-07T00:16:49.326Z,9.29
2022-11-07T00:26:49.652Z,9.39
2022-11-07T00:36:49.673Z,9.71
2022-11-07T00:46:49.891Z,9.74
2022-11-07T00:56:49.923Z,9.66
2022-11-07T01:06:50.237Z,9.81
2022-11-07T01:16:50.276Z,9.14
2022-11-07T01:26:50.599Z,8.73
2022-11-07T01:36:50.619Z,8.28
2022-11-07T01:46:50.956Z,8.07
2022-11-07T01:56:50.977Z,8.38
2022-11-07T02:06:51.291Z,7.83
2022-11-07T02:16:51.322Z,7.46
2022-11-07T02:26:51.646Z,7.43
2022-11-07T02:36:51.679Z,7.60
2022-11-07T02:46:51.992Z,7.48
2022-11-07T02:56:52.030Z,7.46
2022-11-07T03:06:52.347Z,7.80
2022-11-07T03:16:52.380Z,8.20
2022-11-07T03:26:52.692Z,8.20
2022-11-07T03:36:52.716Z,8.41
2022-11-07T03:46:53.244Z,8.65
2022-11-07T03:56:53.075Z,8.66
2022-11-07T04:06:53.402Z,8.44
2022-11-07T04:16:53.429Z,8.53
2022-11-07T04:26:53.746Z,8.52
2022-11-07T04:36:53.783Z,8.47
2022-11-07T04:46:54.090Z,8.44
2022-11-07T04:56:54.117Z,8.26
2022-11-07T05:06:54.446Z,8.16
2022-11-07T05:16:54.477Z,7.79
2022-11-07T05:26:54.799Z,7.48
2022-11-07T05:36:54.823Z,7.57
2022-11-07T05:46:55.163Z,7.30
2022-11-07T05:56:55.209Z,7.80
2022-11-07T06:06:55.487Z,7.57
2022-11-07T06:16:55.517Z,7.92
2022-11-07T06:26:55.848Z,7.85
2022-11-07T06:37:02.483Z,7.80
2022-11-07T06:46:57.003Z,7.92
2022-11-07T06:56:56.475Z,7.97
2022-11-07T07:06:56.296Z,7.77
2022-11-07T07:16:56.518Z,7.93
2022-11-07T07:26:56.544Z,8.33
2022-11-07T07:36:56.860Z,8.73
2022-11-07T07:46:56.891Z,8.84
2022-11-07T07:56:57.218Z,8.95
2022-11-07T08:06:57.248Z,9.42
2022-11-07T08:16:57.558Z,9.48
2022-11-07T08:26:57.609Z,9.68
2022-11-07T08:36:57.906Z,10.26
2022-11-07T08:46:57.935Z,10.67
2022-11-07T08:56:58.261Z,11.03
2022-11-07T09:06:58.288Z,11.27
2022-11-07T09:16:58.621Z,11.25
2022-11-07T09:26:58.657Z,11.14
2022-11-07T09:36:58.979Z,11.61
2022-11-07T09:46:59.003Z,12.34
2022-11-07T09:56:59.305Z,13.01
2022-11-07T10:06:59.333Z,13.14
2022-11-07T10:16:59.670Z,13.19
2022-11-07T10:26:59.682Z,13.78
2022-11-07T10:37:00.015Z,13.95
2022-11-07T10:47:00.063Z,14.15
2022-11-07T10:57:00.371Z,14.18
2022-11-07T11:07:00.411Z,14.72
2022-11-07T11:17:00.723Z,15.32
2022-11-07T11:27:00.786Z,15.06
2022-11-07T11:37:01.158Z,15.29
2022-11-07T11:47:01.187Z,15.62
2022-11-07T11:57:01.501Z,15.56
2022-11-07T12:07:01.531Z,15.89
2022-11-07T12:17:01.856Z,16.63
2022-11-07T12:27:01.928Z,16.81
2022-11-07T12:37:02.008Z,17.36
2022-11-07T12:47:02.029Z,17.71
2022-11-07T12:57:02.356Z,17.59
2022-11-07T13:07:02.437Z,17.62
2022-11-07T13:17:02.498Z,18.14
2022-11-07T13:27:02.719Z,18.51
2022-11-07T13:37:03.057Z,18.02
2022-11-07T13:47:03.078Z,18.12
2022-11-07T13:57:03.408Z,18.02
2022-11-07T14:07:03.441Z,17.31
2022-11-07T14:17:03.772Z,16.94
2022-11-07T14:27:03.829Z,16.45
2022-11-07T14:37:04.107Z,15.93
2022-11-07T14:47:04.129Z,15.19
2022-11-07T14:57:04.450Z,15.35
2022-11-07T15:07:04.489Z,14.95
2022-11-07T15:17:04.808Z,14.52
2022-11-07T15:27:04.836Z,13.85
2022-11-07T15:37:05.148Z,13.33
2022-11-07T15:47:05.206Z,13.54
2022-11-07T15:57:05.506Z,13.12
2022-11-07T16:07:05.536Z,12.60
2022-11-07T16:17:06.048Z,12.42
2022-11-07T16:27:05.922Z,11.83
2022-11-07T16:37:06.207Z,11.79
2022-11-07T16:47:06.520Z,11.49
2022-11-07T16:57:06.785Z,11.69
2022-11-07T17:07:07.545Z,10.44
2022-11-07T17:17:06.908Z,10.44
2022-11-07T17:27:07.051Z,10.32
2022-11-07T17:37:07.393Z,11.21
2022-11-07T17:47:07.464Z,10.32
2022-11-07T17:57:07.848Z,11.57
2022-11-07T18:07:07.741Z,11.22
2022-11-07T18:17:08.410Z,11.02
2022-11-07T18:27:10.624Z,11.39
2022-11-07T18:37:08.642Z,11.15
2022-11-07T18:47:08.647Z,10.94
2022-11-07T18:57:09.012Z,10.84
2022-11-07T19:07:09.972Z,10.81
2022-11-07T19:17:09.255Z,10.55
2022-11-07T19:27:09.196Z,10.61
2022-11-07T19:37:10.011Z,10.48
2022-11-07T19:47:09.571Z,10.30
2022-11-07T19:57:09.839Z,10.14
2022-11-07T20:07:09.980Z,9.94
2022-11-07T20:17:10.205Z,10.14
2022-11-07T20:27:10.215Z,10.07
2022-11-07T20:37:11.228Z,9.94
2022-11-07T20:47:10.577Z,9.89
2022-11-07T20:57:11.471Z,9.61
2022-11-07T21:07:10.727Z,9.61
2022-11-07T21:17:15.100Z,9.40
2022-11-07T21:27:11.039Z,9.31
2022-11-07T21:37:11.345Z,9.36
2022-11-07T21:47:11.560Z,9.13
2022-11-07T21:57:11.692Z,9.05
2022-11-07T22:07:11.729Z,9.66
2022-11-07T22:17:12.059Z,8.81
2022-11-07T22:27:12.085Z,8.59
2022-11-07T22:37:12.399Z,8.61
2022-11-07T22:47:12.419Z,8.47
2022-11-07T22:57:17.572Z,8.43
2022-11-07T23:07:13.800Z,8.45
2022-11-07T23:17:13.093Z,8.59
2022-11-07T23:27:13.180Z,8.68
2022-11-07T23:37:13.235Z,8.65
2022-11-07T23:47:13.466Z,8.65
2022-11-07T23:57:13.799Z,8.19
